createdAt,value
2019-06-26T00:00:08.689Z,23.1
2019-06-26T00:01:11.454Z,23.1
2019-06-26T00:02:14.288Z,23.1
2019-06-26T00:03:17.024Z,23
2019-06-26T00:04:19.824Z,23
2019-06-26T00:05:22.571Z,23
2019-06-26T00:06:25.350Z,23
2019-06-26T00:07:28.222Z,23
2019-06-26T00:08:30.979Z,23
2019-06-26T00:09:33.800Z,23
2019-06-26T00:10:36.519Z,23
2019-06-26T00:11:39.292Z,22.9
2019-06-26T00:12:42.051Z,22.9
2019-06-26T00:13:44.853Z,22.9
2019-06-26T00:14:47.582Z,22.9
2019-06-26T00:15:50.319Z,22.9
2019-06-26T00:16:53.057Z,22.9
2019-06-26T00:17:55.818Z,22.9
2019-06-26T00:18:58.542Z,22.9
2019-06-26T00:20:01.265Z,22.8
2019-06-26T00:21:04.010Z,22.8
2019-06-26T00:22:06.792Z,22.7
2019-06-26T00:23:09.522Z,22.7
2019-06-26T00:24:14.255Z,22.7
2019-06-26T00:25:16.931Z,22.7
2019-06-26T00:26:19.639Z,22.6
2019-06-26T00:27:22.361Z,22.6
2019-06-26T00:28:25.107Z,22.6
2019-06-26T00:29:27.845Z,22.6
2019-06-26T00:30:30.652Z,22.5
2019-06-26T00:31:33.426Z,22.5
2019-06-26T00:32:36.183Z,22.5
2019-06-26T00:33:38.960Z,22.6
2019-06-26T00:34:41.679Z,22.5
2019-06-26T00:35:44.450Z,22.5
2019-06-26T00:36:47.188Z,22.5
2019-06-26T00:37:50.024Z,22.5
2019-06-26T00:38:52.756Z,22.5
2019-06-26T00:39:55.494Z,22.4
2019-06-26T00:40:58.256Z,22.4
2019-06-26T00:42:01.009Z,22.4
2019-06-26T00:43:05.943Z,22.4
2019-06-26T00:44:08.687Z,22.3
2019-06-26T00:45:11.437Z,22.3
2019-06-26T00:46:14.170Z,22.3
2019-06-26T00:47:16.909Z,22.2
2019-06-26T00:48:19.700Z,22.3
2019-06-26T00:49:22.436Z,22.2
2019-06-26T00:50:25.156Z,22.3
2019-06-26T00:51:29.901Z,22.2
2019-06-26T00:52:32.548Z,22.2
2019-06-26T00:53:35.361Z,22.2
2019-06-26T00:54:38.038Z,22.2
2019-06-26T00:55:40.739Z,22.2
2019-06-26T00:56:43.459Z,22.2
2019-06-26T00:57:46.233Z,22.2
2019-06-26T00:58:48.919Z,22.2
2019-06-26T00:59:51.689Z,22.2
2019-06-26T01:00:54.461Z,22.2
2019-06-26T01:01:59.244Z,22.2
2019-06-26T01:03:01.932Z,22.2
2019-06-26T01:04:04.711Z,22.2
2019-06-26T01:05:09.473Z,22.2
2019-06-26T01:06:12.126Z,22.2
2019-06-26T01:07:14.898Z,22.2
2019-06-26T01:08:18.666Z,22.2
2019-06-26T01:09:21.414Z,22.2
2019-06-26T01:10:26.142Z,22.2
2019-06-26T01:11:30.801Z,22.2
2019-06-26T01:12:33.493Z,22.1
2019-06-26T01:13:36.286Z,22.1
2019-06-26T01:14:40.945Z,22.1
2019-06-26T01:15:45.690Z,22.1
2019-06-26T01:16:50.318Z,22.1
2019-06-26T01:17:52.946Z,22.1
2019-06-26T01:18:55.687Z,22.1
2019-06-26T01:20:00.448Z,22.1
2019-06-26T01:21:03.041Z,22
2019-06-26T01:22:07.947Z,22
2019-06-26T01:23:10.618Z,22
2019-06-26T01:24:13.404Z,22
2019-06-26T01:25:16.147Z,22
2019-06-26T01:26:18.819Z,22
2019-06-26T01:27:21.608Z,22
2019-06-26T01:28:26.416Z,21.9
2019-06-26T01:29:31.839Z,21.9
2019-06-26T01:30:35.324Z,21.9
2019-06-26T01:31:38.091Z,21.9
2019-06-26T01:32:42.903Z,21.8
2019-06-26T01:33:50.567Z,21.8
2019-06-26T01:34:55.137Z,21.8
2019-06-26T01:35:57.801Z,21.8
2019-06-26T01:37:02.518Z,21.8
2019-06-26T01:38:07.140Z,21.8
2019-06-26T01:39:11.796Z,21.7
2019-06-26T01:40:16.444Z,21.7
2019-06-26T01:41:19.094Z,21.7
2019-06-26T01:42:21.881Z,21.8
2019-06-26T01:43:26.610Z,21.7
2019-06-26T01:44:29.294Z,21.7
2019-06-26T01:45:32.132Z,21.7
2019-06-26T01:46:34.880Z,21.7
2019-06-26T01:47:39.597Z,21.8
2019-06-26T01:48:44.362Z,21.7
2019-06-26T01:49:49.074Z,21.7
2019-06-26T01:50:53.790Z,21.7
2019-06-26T01:51:58.446Z,21.8
2019-06-26T01:53:01.076Z,21.7
2019-06-26T01:54:03.831Z,21.7
2019-06-26T01:55:08.595Z,21.7
2019-06-26T01:56:16.233Z,21.6
2019-06-26T01:57:20.749Z,21.6
2019-06-26T01:58:25.369Z,21.5
2019-06-26T01:59:28.027Z,21.5
2019-06-26T02:00:30.763Z,21.4
2019-06-26T02:01:33.574Z,21.5
2019-06-26T02:02:36.353Z,21.5
2019-06-26T02:03:41.125Z,21.5
2019-06-26T02:04:48.783Z,21.5
2019-06-26T02:05:53.269Z,21.5
2019-06-26T02:06:58.143Z,21.5
2019-06-26T02:08:01.009Z,21.4
2019-06-26T02:09:03.772Z,21.4
2019-06-26T02:10:06.529Z,21.4
2019-06-26T02:11:09.246Z,21.4
2019-06-26T02:12:14.054Z,21.4
2019-06-26T02:13:16.791Z,21.4
2019-06-26T02:14:30.761Z,21.4
2019-06-26T02:15:36.341Z,21.5
2019-06-26T02:16:41.031Z,21.4
2019-06-26T02:17:43.679Z,21.4
2019-06-26T02:18:46.470Z,21.4
2019-06-26T02:19:49.340Z,21.4
2019-06-26T02:20:54.462Z,21.4
2019-06-26T02:21:59.078Z,21.3
2019-06-26T02:23:03.744Z,21.3
2019-06-26T02:24:06.437Z,21.2
2019-06-26T02:25:11.250Z,21.2
2019-06-26T02:26:13.954Z,21.2
2019-06-26T02:27:16.758Z,21.1
2019-06-26T02:28:19.523Z,21.1
2019-06-26T02:29:22.328Z,21.1
2019-06-26T02:30:27.174Z,21.1
2019-06-26T02:31:29.911Z,21.1
2019-06-26T02:32:32.713Z,21.1
2019-06-26T02:33:35.449Z,21.1
2019-06-26T02:34:38.329Z,21.1
2019-06-26T02:35:43.085Z,21.1
2019-06-26T02:36:45.794Z,21.2
2019-06-26T02:37:50.591Z,21.1
2019-06-26T02:38:55.258Z,21.1
2019-06-26T02:39:58.126Z,21.1
2019-06-26T02:41:00.820Z,21.1
2019-06-26T02:42:03.619Z,21.1
2019-06-26T02:43:08.397Z,21.1
2019-06-26T02:44:11.090Z,21.1
2019-06-26T02:45:13.854Z,21.2
2019-06-26T02:46:18.704Z,21.2
2019-06-26T02:47:23.344Z,21.2
2019-06-26T02:48:25.985Z,21.2
2019-06-26T02:49:30.722Z,21.2
2019-06-26T02:50:35.393Z,21.2
2019-06-26T02:51:38.074Z,21.1
2019-06-26T02:52:40.861Z,21.1
2019-06-26T02:53:45.655Z,21.1
2019-06-26T02:54:50.523Z,21.1
2019-06-26T02:55:53.220Z,21.1
2019-06-26T02:56:58.039Z,21.1
2019-06-26T02:58:02.713Z,21.1
2019-06-26T02:59:05.435Z,21.1
2019-06-26T03:00:08.210Z,21.2
2019-06-26T03:01:10.999Z,21.2
2019-06-26T03:02:13.767Z,21.3
2019-06-26T03:03:16.566Z,21.2
2019-06-26T03:04:19.352Z,21.2
2019-06-26T03:05:22.122Z,21.2
2019-06-26T03:06:26.907Z,21.1
2019-06-26T03:07:29.553Z,21.1
2019-06-26T03:08:32.292Z,21.1
2019-06-26T03:09:35.036Z,21
2019-06-26T03:10:39.782Z,21.1
2019-06-26T03:11:42.443Z,21
2019-06-26T03:12:47.369Z,21
2019-06-26T03:13:52.024Z,21
2019-06-26T03:15:08.042Z,21
2019-06-26T03:16:11.981Z,21
2019-06-26T03:17:16.659Z,21
2019-06-26T03:18:19.302Z,21
2019-06-26T03:19:22.060Z,21
2019-06-26T03:20:24.810Z,21
2019-06-26T03:21:27.582Z,21
2019-06-26T03:22:30.329Z,21
2019-06-26T03:23:35.239Z,21
2019-06-26T03:24:39.866Z,21
2019-06-26T03:25:42.542Z,21
2019-06-26T03:26:45.295Z,21
2019-06-26T03:27:48.164Z,21.1
2019-06-26T03:28:50.881Z,21.1
2019-06-26T03:29:53.632Z,21.1
2019-06-26T03:30:56.412Z,21.1
2019-06-26T03:32:02.186Z,21.2
2019-06-26T03:33:04.851Z,21.2
2019-06-26T03:34:07.656Z,21.1
2019-06-26T03:35:13.324Z,21.2
2019-06-26T03:36:15.879Z,21.2
2019-06-26T03:37:18.662Z,21.2
2019-06-26T03:38:24.317Z,21.2
2019-06-26T03:39:26.899Z,21.2
2019-06-26T03:40:29.681Z,21.2
2019-06-26T03:41:32.470Z,21.2
2019-06-26T03:42:37.242Z,21.2
2019-06-26T03:43:39.915Z,21.2
2019-06-26T03:44:44.657Z,21.2
2019-06-26T03:45:47.375Z,21.2
2019-06-26T03:46:50.541Z,21.2
2019-06-26T03:47:53.286Z,21.3
2019-06-26T03:48:56.058Z,21.3
2019-06-26T03:49:58.796Z,21.3
2019-06-26T03:51:01.556Z,21.3
2019-06-26T03:52:06.301Z,21.3
2019-06-26T03:53:09.097Z,21.3
2019-06-26T03:54:11.936Z,21.4
2019-06-26T03:55:16.731Z,21.6
2019-06-26T03:56:19.405Z,21.6
2019-06-26T03:57:24.172Z,21.6
2019-06-26T03:58:26.783Z,21.6
2019-06-26T03:59:29.577Z,21.6
2019-06-26T04:00:35.276Z,21.6
2019-06-26T04:01:37.837Z,21.6
2019-06-26T04:02:40.547Z,21.6
2019-06-26T04:03:43.335Z,21.6
2019-06-26T04:04:46.127Z,21.5
2019-06-26T04:05:48.901Z,21.5
2019-06-26T04:06:51.643Z,21.5
2019-06-26T04:07:54.441Z,21.6
2019-06-26T04:08:57.173Z,21.5
2019-06-26T04:09:59.962Z,21.6
2019-06-26T04:11:02.810Z,21.7
2019-06-26T04:12:05.649Z,21.8
2019-06-26T04:13:08.440Z,21.8
2019-06-26T04:14:11.247Z,21.9
2019-06-26T04:15:13.998Z,21.9
2019-06-26T04:16:16.769Z,22
2019-06-26T04:17:19.599Z,22
2019-06-26T04:18:22.399Z,22
2019-06-26T04:19:25.106Z,22
2019-06-26T04:20:27.857Z,22.1
2019-06-26T04:21:30.604Z,22.2
2019-06-26T04:22:33.328Z,22.2
2019-06-26T04:23:36.102Z,22.3
2019-06-26T04:24:38.869Z,22.3
2019-06-26T04:25:41.587Z,22.2
2019-06-26T04:26:45.333Z,22.2
2019-06-26T04:27:47.947Z,22.2
2019-06-26T04:28:52.678Z,22.2
2019-06-26T04:29:57.303Z,22.2
2019-06-26T04:30:59.957Z,22.2
2019-06-26T04:32:04.686Z,22.3
2019-06-26T04:33:09.402Z,22.3
2019-06-26T04:34:12.072Z,22.3
2019-06-26T04:35:16.858Z,22.4
2019-06-26T04:36:19.517Z,22.4
2019-06-26T04:37:22.240Z,22.4
2019-06-26T04:38:25.033Z,22.5
2019-06-26T04:39:29.992Z,22.5
2019-06-26T04:40:32.682Z,22.5
2019-06-26T04:41:35.455Z,22.5
2019-06-26T04:42:38.203Z,22.5
2019-06-26T04:43:42.287Z,22.6
2019-06-26T04:48:49.425Z,22.9
2019-06-26T04:49:54.020Z,22.9
2019-06-26T04:50:56.605Z,22.9
2019-06-26T04:52:01.321Z,22.9
2019-06-26T04:53:06.038Z,22.9
2019-06-26T04:54:10.723Z,22.8
2019-06-26T04:55:13.423Z,22.9
2019-06-26T04:56:16.395Z,23
2019-06-26T04:57:19.189Z,23.1
2019-06-26T04:58:23.911Z,23
2019-06-26T04:59:28.544Z,23.1
2019-06-26T05:00:31.218Z,23.2
2019-06-26T05:01:36.040Z,23.2
2019-06-26T05:02:40.719Z,23.2
2019-06-26T05:03:45.417Z,23.3
2019-06-26T05:04:49.113Z,23.3
2019-06-26T05:05:51.820Z,23.4
2019-06-26T05:06:56.554Z,23.5
2019-06-26T05:07:59.191Z,23.5
2019-06-26T05:09:03.934Z,23.6
2019-06-26T05:10:08.626Z,23.7
2019-06-26T05:11:12.714Z,23.6
2019-06-26T05:12:15.707Z,23.7
2019-06-26T05:13:18.441Z,23.7
2019-06-26T05:14:23.203Z,23.7
2019-06-26T05:15:27.889Z,23.8
2019-06-26T05:16:32.703Z,23.8
2019-06-26T05:17:35.525Z,23.9
2019-06-26T05:18:40.263Z,24
2019-06-26T05:19:42.961Z,24
2019-06-26T05:20:45.764Z,24
2019-06-26T05:21:50.567Z,24.1
2019-06-26T05:22:55.292Z,24.1
2019-06-26T05:23:57.963Z,24.1
2019-06-26T05:25:00.752Z,24.2
2019-06-26T05:26:03.538Z,24.3
2019-06-26T05:27:08.319Z,24.3
2019-06-26T05:28:11.026Z,24.4
2019-06-26T05:29:13.794Z,24.4
2019-06-26T05:30:16.578Z,24.4
2019-06-26T05:31:21.368Z,24.5
2019-06-26T05:32:24.063Z,24.5
2019-06-26T05:33:26.831Z,24.5
2019-06-26T05:34:29.561Z,24.5
2019-06-26T05:35:34.958Z,24.5
2019-06-26T05:36:38.123Z,24.7
2019-06-26T05:37:42.853Z,24.7
2019-06-26T05:38:45.570Z,24.8
2019-06-26T05:39:52.528Z,24.7
2019-06-26T05:40:57.396Z,24.7
2019-06-26T05:42:00.135Z,24.8
2019-06-26T05:43:02.928Z,24.9
2019-06-26T05:44:07.649Z,24.9
2019-06-26T05:45:10.309Z,25
2019-06-26T05:46:13.047Z,25
2019-06-26T05:47:17.823Z,25.2
2019-06-26T05:48:20.491Z,25.2
2019-06-26T05:49:25.278Z,25.3
2019-06-26T05:50:27.960Z,25.1
2019-06-26T05:51:30.765Z,25.2
2019-06-26T05:52:35.571Z,25.3
2019-06-26T05:53:38.277Z,25.4
2019-06-26T05:54:41.015Z,25.4
2019-06-26T05:55:45.811Z,25.5
2019-06-26T05:56:48.461Z,25.6
2019-06-26T05:57:51.217Z,25.7
2019-06-26T05:58:56.003Z,25.7
2019-06-26T06:00:00.689Z,25.8
2019-06-26T06:01:05.429Z,25.8
2019-06-26T06:02:08.072Z,25.9
2019-06-26T06:03:12.801Z,26
2019-06-26T06:04:15.482Z,26.1
2019-06-26T06:05:18.199Z,26.1
2019-06-26T06:06:23.004Z,26.1
2019-06-26T06:07:25.711Z,26.1
2019-06-26T06:08:28.498Z,26
2019-06-26T06:09:33.249Z,26
2019-06-26T06:10:35.975Z,26.1
2019-06-26T06:11:40.759Z,26.2
2019-06-26T06:12:43.456Z,26.2
2019-06-26T06:13:48.200Z,26.2
2019-06-26T06:14:56.334Z,26.3
2019-06-26T06:15:58.826Z,26.4
2019-06-26T06:17:03.562Z,26.4
2019-06-26T06:18:06.213Z,26.6
2019-06-26T06:19:11.016Z,26.6
2019-06-26T06:20:15.696Z,26.6
2019-06-26T06:21:20.428Z,26.6
2019-06-26T06:22:27.453Z,26.7
2019-06-26T06:23:32.214Z,26.6
2019-06-26T06:24:36.857Z,26.7
2019-06-26T06:25:41.486Z,26.8
2019-06-26T06:26:57.660Z,27
2019-06-26T06:27:59.978Z,27
2019-06-26T06:29:02.769Z,27.1
2019-06-26T06:30:05.571Z,27.1
2019-06-26T06:31:08.402Z,27.2
2019-06-26T06:32:13.206Z,27.3
2019-06-26T06:33:15.899Z,27.4
2019-06-26T06:34:20.660Z,27.4
2019-06-26T06:35:23.337Z,27.4
2019-06-26T06:36:26.118Z,27.4
2019-06-26T06:37:28.909Z,27.5
2019-06-26T06:38:31.674Z,27.6
2019-06-26T06:39:36.413Z,27.7
2019-06-26T06:40:41.090Z,27.8
2019-06-26T06:41:43.748Z,28.2
2019-06-26T06:42:46.547Z,28.6
2019-06-26T06:43:49.303Z,29.2
2019-06-26T06:44:52.071Z,29.9
2019-06-26T06:45:54.842Z,30.5
2019-06-26T06:47:03.651Z,30.8
2019-06-26T06:48:09.038Z,31.3
2019-06-26T06:49:11.761Z,32
2019-06-26T06:50:14.544Z,32.2
2019-06-26T06:51:17.325Z,32.6
2019-06-26T06:52:20.117Z,32.8
2019-06-26T06:53:22.883Z,32.9
2019-06-26T06:54:25.664Z,33.5
2019-06-26T06:55:28.425Z,34
2019-06-26T06:56:31.228Z,34.3
2019-06-26T06:57:34.021Z,34.2
2019-06-26T06:58:43.313Z,34.6
2019-06-26T06:59:45.788Z,35.1
2019-06-26T07:00:48.506Z,35.4
2019-06-26T07:01:51.235Z,35.6
2019-06-26T07:02:53.986Z,36.2
2019-06-26T07:03:56.742Z,35.9
2019-06-26T07:04:59.632Z,36
2019-06-26T07:06:02.461Z,36.4
2019-06-26T07:07:07.224Z,36.8
2019-06-26T07:08:09.925Z,36.8
2019-06-26T07:09:12.724Z,37.1
2019-06-26T07:10:15.456Z,37
2019-06-26T07:11:18.250Z,37
2019-06-26T07:12:21.134Z,37
2019-06-26T07:13:23.899Z,37.2
2019-06-26T07:14:26.703Z,37.4
2019-06-26T07:15:29.486Z,37.8
2019-06-26T07:16:32.252Z,38
2019-06-26T07:17:35.039Z,37.5
2019-06-26T07:18:37.809Z,37.4
2019-06-26T07:19:40.614Z,37.6
2019-06-26T07:20:45.385Z,37.6
2019-06-26T07:21:48.010Z,37.5
2019-06-26T07:22:52.840Z,37.3
2019-06-26T07:23:57.474Z,37.2
2019-06-26T07:25:00.191Z,37.3
2019-06-26T07:26:02.948Z,37.3
2019-06-26T07:27:05.721Z,38.2
2019-06-26T07:28:08.494Z,38.8
2019-06-26T07:29:11.329Z,39
2019-06-26T07:30:14.118Z,38.3
2019-06-26T07:31:16.906Z,37.9
2019-06-26T07:32:21.682Z,37.3
2019-06-26T07:33:24.352Z,37.7
2019-06-26T07:34:29.274Z,38.1
2019-06-26T07:35:31.962Z,38.2
2019-06-26T07:36:34.731Z,38.5
2019-06-26T07:37:37.559Z,39
2019-06-26T07:38:40.360Z,38.8
2019-06-26T07:39:43.151Z,38.5
2019-06-26T07:40:47.988Z,38.5
2019-06-26T07:41:50.660Z,39
2019-06-26T07:42:53.470Z,40.1
2019-06-26T07:43:56.255Z,40.2
2019-06-26T07:44:59.114Z,40.1
2019-06-26T07:46:03.869Z,40.4
2019-06-26T07:47:21.671Z,40.4
2019-06-26T07:48:35.753Z,41.1
2019-06-26T07:49:38.675Z,41
2019-06-26T07:50:41.446Z,41.1
2019-06-26T07:51:44.248Z,41.2
2019-06-26T07:52:47.277Z,40.8
2019-06-26T07:53:50.091Z,41.2
2019-06-26T07:54:52.887Z,41.5
2019-06-26T07:55:55.811Z,41.5
2019-06-26T07:56:58.639Z,41.9
2019-06-26T07:58:01.429Z,41.9
2019-06-26T07:59:04.185Z,41.5
2019-06-26T08:00:06.958Z,41.6
2019-06-26T08:01:09.727Z,41.9
2019-06-26T08:02:12.478Z,42
2019-06-26T08:03:15.271Z,42.3
2019-06-26T08:04:20.071Z,42.7
2019-06-26T08:05:22.708Z,42.3
2019-06-26T08:06:25.459Z,42.5
2019-06-26T08:07:28.278Z,42.5
2019-06-26T08:08:31.090Z,42.7
2019-06-26T08:09:33.858Z,42.3
2019-06-26T08:10:36.700Z,42.7
2019-06-26T08:11:39.463Z,42.9
2019-06-26T08:12:42.263Z,42.8
2019-06-26T08:13:45.039Z,42.5
2019-06-26T08:14:47.852Z,42.1
2019-06-26T08:15:50.602Z,42.5
2019-06-26T08:16:53.393Z,42.8
2019-06-26T08:18:00.793Z,43.3
2019-06-26T08:19:04.218Z,43.8
2019-06-26T08:20:07.027Z,43.2
2019-06-26T08:21:12.378Z,42.8
2019-06-26T08:22:15.841Z,43.1
2019-06-26T08:23:18.649Z,42.2
2019-06-26T08:24:21.402Z,41.6
2019-06-26T08:25:24.100Z,42.6
2019-06-26T08:26:26.862Z,42.3
2019-06-26T08:27:29.636Z,42.2
2019-06-26T08:28:32.489Z,42.7
2019-06-26T08:29:35.254Z,43.2
2019-06-26T08:30:38.015Z,43.8
2019-06-26T08:31:40.787Z,44.5
2019-06-26T08:32:43.529Z,44.6
2019-06-26T08:33:46.424Z,44.8
2019-06-26T08:34:49.258Z,44.5
2019-06-26T08:35:53.983Z,45.2
2019-06-26T08:36:56.677Z,45.4
2019-06-26T08:38:09.271Z,45.4
2019-06-26T08:39:17.617Z,45.7
2019-06-26T08:40:20.773Z,45.2
2019-06-26T08:41:23.479Z,44.5
2019-06-26T08:42:26.245Z,45.4
2019-06-26T08:43:31.335Z,45.5
2019-06-26T08:44:36.416Z,45.5
2019-06-26T08:45:39.081Z,45.8
2019-06-26T08:46:41.945Z,46.2
2019-06-26T08:47:44.718Z,46.2
2019-06-26T08:48:50.812Z,45.9
2019-06-26T08:49:54.869Z,45.8
2019-06-26T08:50:59.748Z,45
2019-06-26T08:52:02.625Z,45
2019-06-26T08:53:05.515Z,45.4
2019-06-26T08:54:08.467Z,45.5
2019-06-26T08:55:13.176Z,46
2019-06-26T08:56:15.841Z,46.3
2019-06-26T08:57:18.824Z,46.2
2019-06-26T08:58:21.609Z,46.2
2019-06-26T08:59:24.468Z,46.5
2019-06-26T09:00:27.207Z,46.5
2019-06-26T09:01:29.991Z,46
2019-06-26T09:02:32.971Z,46.2
2019-06-26T09:03:35.720Z,46.3
2019-06-26T09:04:40.465Z,46.4
2019-06-26T09:05:48.234Z,46.7
2019-06-26T09:06:51.408Z,47.3
2019-06-26T09:07:54.229Z,47
2019-06-26T09:08:57.104Z,47.3
2019-06-26T09:09:59.862Z,47.2
2019-06-26T09:11:02.625Z,47.7
2019-06-26T09:12:05.474Z,47.8
2019-06-26T09:13:08.253Z,47.9
2019-06-26T09:14:11.025Z,48.3
2019-06-26T09:15:13.748Z,48.7
2019-06-26T09:16:16.585Z,47
2019-06-26T09:17:19.312Z,46.2
2019-06-26T09:18:34.666Z,45.7
2019-06-26T09:19:38.707Z,46.1
2019-06-26T09:20:42.619Z,46
2019-06-26T09:21:48.198Z,46.1
2019-06-26T09:22:51.107Z,46
2019-06-26T09:23:55.822Z,46.6
2019-06-26T09:24:58.650Z,47.4
2019-06-26T09:26:01.466Z,47.1
2019-06-26T09:27:04.227Z,47.1
2019-06-26T09:28:07.044Z,47.3
2019-06-26T09:29:09.849Z,47.4
2019-06-26T09:30:12.586Z,46.9
2019-06-26T09:31:15.335Z,46.5
2019-06-26T09:32:18.110Z,46.7
2019-06-26T09:33:20.910Z,47.4
2019-06-26T09:34:23.661Z,47.7
2019-06-26T09:35:26.457Z,47.8
2019-06-26T09:36:29.337Z,48
2019-06-26T09:37:32.159Z,47.7
2019-06-26T09:38:34.827Z,47.6
2019-06-26T09:39:37.628Z,46.8
2019-06-26T09:40:40.433Z,45.9
2019-06-26T09:41:43.215Z,46.2
2019-06-26T09:42:45.947Z,46.2
2019-06-26T09:43:48.764Z,46.1
2019-06-26T09:44:51.534Z,46.2
2019-06-26T09:45:54.345Z,46.1
2019-06-26T09:46:57.130Z,46.2
2019-06-26T09:48:00.045Z,46.2
2019-06-26T09:49:02.881Z,46.4
2019-06-26T09:50:05.668Z,47
2019-06-26T09:51:08.465Z,47.2
2019-06-26T09:52:11.313Z,47.2
2019-06-26T09:53:14.119Z,47.4
2019-06-26T09:54:16.957Z,47.5
2019-06-26T09:55:19.705Z,47.4
2019-06-26T09:56:22.522Z,47.9
2019-06-26T09:57:25.322Z,48.8
2019-06-26T09:58:28.084Z,49.4
2019-06-26T09:59:30.993Z,49.4
2019-06-26T10:00:35.817Z,48.7
2019-06-26T10:01:40.500Z,49.4
2019-06-26T10:02:43.169Z,49.7
2019-06-26T10:03:45.932Z,50.1
2019-06-26T10:04:48.695Z,50
2019-06-26T10:05:51.464Z,50
2019-06-26T10:06:56.263Z,50.1
2019-06-26T10:08:00.943Z,50.2
2019-06-26T10:09:03.639Z,50
2019-06-26T10:10:06.416Z,50
2019-06-26T10:11:09.203Z,49.7
2019-06-26T10:12:11.985Z,48.2
2019-06-26T10:13:16.807Z,49
2019-06-26T10:14:19.496Z,50
2019-06-26T10:15:22.280Z,49
2019-06-26T10:16:25.055Z,48.2
2019-06-26T10:17:29.839Z,47.5
2019-06-26T10:18:32.466Z,47.2
2019-06-26T10:19:35.289Z,47.4
2019-06-26T10:20:40.101Z,48.5
2019-06-26T10:21:42.779Z,49.5
2019-06-26T10:22:45.551Z,49.4
2019-06-26T10:23:48.353Z,49.5
2019-06-26T10:24:51.164Z,49
2019-06-26T10:25:53.921Z,49.2
2019-06-26T10:26:58.725Z,50.4
2019-06-26T10:28:01.647Z,51.1
2019-06-26T10:29:07.253Z,51
2019-06-26T10:30:11.950Z,51
2019-06-26T10:31:18.436Z,50.7
2019-06-26T10:32:23.227Z,50.1
2019-06-26T10:33:25.860Z,50
2019-06-26T10:34:28.635Z,50
2019-06-26T10:35:33.412Z,49.6
2019-06-26T10:36:36.060Z,50.1
2019-06-26T10:37:38.851Z,50.3
2019-06-26T10:38:41.623Z,51
2019-06-26T10:39:46.354Z,49.6
2019-06-26T10:40:51.028Z,49
2019-06-26T10:41:54.979Z,49.7
2019-06-26T10:43:00.075Z,48.7
2019-06-26T10:44:03.134Z,47.5
2019-06-26T10:45:05.996Z,46.6
2019-06-26T10:46:10.863Z,46.9
2019-06-26T10:47:13.609Z,46.6
2019-06-26T10:48:16.384Z,46.8
2019-06-26T10:49:26.733Z,47.3
2019-06-26T10:50:32.410Z,47.7
2019-06-26T10:51:35.024Z,47.4
2019-06-26T10:52:37.750Z,48.6
2019-06-26T10:53:40.496Z,48.9
2019-06-26T10:54:44.643Z,49.3
2019-06-26T10:55:47.672Z,49.7
2019-06-26T10:56:50.419Z,50.2
2019-06-26T10:57:53.203Z,50.6
2019-06-26T10:58:56.050Z,50.1
2019-06-26T10:59:58.795Z,49.6
2019-06-26T11:01:03.611Z,49.8
2019-06-26T11:02:06.222Z,50.1
2019-06-26T11:03:11.043Z,50.2
2019-06-26T11:04:13.729Z,49.9
2019-06-26T11:05:16.508Z,50.3
2019-06-26T11:06:19.304Z,50.3
2019-06-26T11:07:22.051Z,50.4
2019-06-26T11:08:24.907Z,49.8
2019-06-26T11:09:27.674Z,50.4
2019-06-26T11:10:32.432Z,50.8
2019-06-26T11:11:35.132Z,50.7
2019-06-26T11:12:37.962Z,49.9
2019-06-26T11:13:42.829Z,49.2
2019-06-26T11:14:47.512Z,49
2019-06-26T11:15:50.198Z,48.9
2019-06-26T11:16:53.076Z,48.7
2019-06-26T11:17:55.798Z,48.7
2019-06-26T11:19:00.555Z,48.3
2019-06-26T11:20:03.276Z,48.8
2019-06-26T11:21:06.059Z,48.9
2019-06-26T11:22:08.965Z,48.1
2019-06-26T11:23:11.731Z,48.3
2019-06-26T11:24:14.514Z,48.4
2019-06-26T11:25:17.303Z,49
2019-06-26T11:26:22.092Z,49.5
2019-06-26T11:27:24.843Z,49.2
2019-06-26T11:28:27.645Z,49.2
2019-06-26T11:29:30.431Z,49.5
2019-06-26T11:30:33.261Z,48.4
2019-06-26T11:31:36.036Z,48.1
2019-06-26T11:32:38.849Z,47.1
2019-06-26T11:33:41.599Z,46.6
2019-06-26T11:34:44.366Z,47.6
2019-06-26T11:35:47.159Z,47.6
2019-06-26T11:37:02.975Z,47
2019-06-26T11:38:07.159Z,47.7
2019-06-26T11:39:09.891Z,48.2
2019-06-26T11:40:12.687Z,48
2019-06-26T11:41:15.458Z,48.6
2019-06-26T11:42:18.288Z,48.7
2019-06-26T11:43:21.067Z,48
2019-06-26T11:44:23.837Z,47.1
2019-06-26T11:45:28.614Z,46.9
2019-06-26T11:46:31.291Z,46
2019-06-26T11:47:36.086Z,45.9
2019-06-26T11:48:38.748Z,46
2019-06-26T11:49:41.526Z,46.1
2019-06-26T11:50:44.254Z,45.9
2019-06-26T11:51:47.029Z,45.8
2019-06-26T11:52:51.795Z,45.6
2019-06-26T11:53:54.515Z,46
2019-06-26T11:55:02.379Z,46.3
2019-06-26T11:56:06.494Z,45
2019-06-26T11:57:09.261Z,45.6
2019-06-26T11:58:12.010Z,45.8
2019-06-26T11:59:14.824Z,45.8
2019-06-26T12:00:17.586Z,45.7
2019-06-26T12:01:20.393Z,45.7
2019-06-26T12:02:23.239Z,45.3
2019-06-26T12:03:26.014Z,44.4
2019-06-26T12:04:28.897Z,45.1
2019-06-26T12:05:31.717Z,45.3
2019-06-26T12:06:34.493Z,45.4
2019-06-26T12:07:37.255Z,46.2
2019-06-26T12:08:40.045Z,46.3
2019-06-26T12:09:42.832Z,45.5
2019-06-26T12:10:45.716Z,45.3
2019-06-26T12:11:50.501Z,45.4
2019-06-26T12:12:53.440Z,45.5
2019-06-26T12:13:56.351Z,45.5
2019-06-26T12:14:59.091Z,45.5
2019-06-26T12:16:01.875Z,46.1
2019-06-26T12:17:04.692Z,44.7
2019-06-26T12:18:07.497Z,44.1
2019-06-26T12:19:10.401Z,44.1
2019-06-26T12:20:18.881Z,44.7
2019-06-26T12:21:22.576Z,44.8
2019-06-26T12:22:25.331Z,44
2019-06-26T12:23:28.140Z,44.4
2019-06-26T12:24:30.910Z,44.4
2019-06-26T12:25:33.650Z,43.7
2019-06-26T12:26:36.503Z,43.9
2019-06-26T12:27:39.330Z,44
2019-06-26T12:28:42.139Z,44.3
2019-06-26T12:29:44.920Z,44.2
2019-06-26T12:30:47.722Z,44.6
2019-06-26T12:31:50.628Z,45.1
2019-06-26T12:33:02.711Z,44.7
2019-06-26T12:34:08.423Z,44.7
2019-06-26T12:35:11.097Z,44.7
2019-06-26T12:36:13.894Z,44.2
2019-06-26T12:37:16.668Z,44
2019-06-26T12:38:19.465Z,44.2
2019-06-26T12:39:22.267Z,44
2019-06-26T12:40:30.829Z,43.3
2019-06-26T12:41:34.028Z,42.7
2019-06-26T12:42:38.775Z,41.4
2019-06-26T12:43:41.502Z,41.4
2019-06-26T12:44:44.295Z,41.6
2019-06-26T12:45:47.027Z,41.9
2019-06-26T12:46:49.867Z,42.2
2019-06-26T12:47:52.742Z,42.5
2019-06-26T12:48:57.569Z,42.6
2019-06-26T12:50:00.292Z,42.6
2019-06-26T12:51:03.034Z,42.2
2019-06-26T12:52:07.824Z,41.6
2019-06-26T12:53:10.527Z,41.6
2019-06-26T12:54:13.309Z,41.9
2019-06-26T12:55:18.138Z,42.1
2019-06-26T12:56:20.839Z,42
2019-06-26T12:57:23.574Z,42
2019-06-26T12:58:26.346Z,42.2
2019-06-26T12:59:29.137Z,42.2
2019-06-26T13:00:31.902Z,41
2019-06-26T13:01:34.673Z,40.8
2019-06-26T13:02:38.219Z,40.7
2019-06-26T13:03:41.071Z,40.6
2019-06-26T13:04:44.964Z,40.3
2019-06-26T13:05:48.056Z,39.9
2019-06-26T13:06:50.843Z,39.9
2019-06-26T13:07:55.698Z,40.3
2019-06-26T13:08:58.386Z,40.1
2019-06-26T13:10:01.113Z,39.7
2019-06-26T13:11:03.873Z,39.4
2019-06-26T13:12:06.649Z,40
2019-06-26T13:13:09.429Z,40
2019-06-26T13:14:12.208Z,40
2019-06-26T13:15:15.018Z,40
2019-06-26T13:16:17.823Z,39.9
2019-06-26T13:17:22.588Z,40.1
2019-06-26T13:18:25.331Z,40.3
2019-06-26T13:19:28.168Z,40.5
2019-06-26T13:20:30.999Z,40.3
2019-06-26T13:21:33.800Z,39.8
2019-06-26T13:22:36.642Z,40.1
2019-06-26T13:23:41.466Z,40.1
2019-06-26T13:24:44.383Z,40
2019-06-26T13:25:47.173Z,39.7
2019-06-26T13:26:53.391Z,40.1
2019-06-26T13:27:57.323Z,39.9
2019-06-26T13:29:00.133Z,39.5
2019-06-26T13:30:02.905Z,39.5
2019-06-26T13:31:05.670Z,39.4
2019-06-26T13:32:08.492Z,39.3
2019-06-26T13:33:11.268Z,39.1
2019-06-26T13:34:16.070Z,39.1
2019-06-26T13:35:18.745Z,39
2019-06-26T13:36:21.506Z,39.3
2019-06-26T13:37:24.302Z,39.4
2019-06-26T13:38:27.392Z,39.4
2019-06-26T13:39:30.194Z,39.2
2019-06-26T13:40:33.191Z,39.1
2019-06-26T13:41:36.153Z,39
2019-06-26T13:42:40.923Z,39.3
2019-06-26T13:43:43.592Z,39.5
2019-06-26T13:44:48.336Z,39.6
2019-06-26T13:45:51.013Z,39.6
2019-06-26T13:46:55.782Z,39.7
2019-06-26T13:48:00.436Z,39.6
2019-06-26T13:49:03.094Z,39.1
2019-06-26T13:50:05.870Z,39.3
2019-06-26T13:51:10.147Z,39.4
2019-06-26T13:52:13.128Z,39.6
2019-06-26T13:53:15.864Z,39.6
2019-06-26T13:54:20.614Z,39.5
2019-06-26T13:55:23.324Z,38.9
2019-06-26T13:56:26.109Z,39.1
2019-06-26T13:57:28.871Z,38.8
2019-06-26T13:58:31.732Z,38.7
2019-06-26T13:59:36.518Z,38.6
2019-06-26T14:00:39.218Z,38.4
2019-06-26T14:01:41.977Z,38.6
2019-06-26T14:02:44.761Z,38.2
2019-06-26T14:03:47.510Z,38.2
2019-06-26T14:04:50.258Z,38.2
2019-06-26T14:05:55.027Z,38.2
2019-06-26T14:06:57.654Z,38.3
2019-06-26T14:08:00.387Z,38.2
2019-06-26T14:09:03.162Z,38.2
2019-06-26T14:10:05.919Z,38.5
2019-06-26T14:11:10.740Z,38.8
2019-06-26T14:12:18.991Z,38.6
2019-06-26T14:13:22.065Z,38.5
2019-06-26T14:14:37.801Z,38.7
2019-06-26T14:15:59.432Z,38.5
2019-06-26T14:17:02.118Z,38.6